createdAt,value
2023-03-06T00:00:19.457Z,93119.13
2023-03-06T00:01:18.552Z,93109.13
2023-03-06T00:02:15.126Z,93115.84
2023-03-06T00:03:11.834Z,93113.88
2023-03-06T00:04:08.656Z,93113.03
2023-03-06T00:05:05.496Z,93112.16
2023-03-06T00:06:02.447Z,93117.88
2023-03-06T00:06:59.122Z,93116.63
2023-03-06T00:07:55.798Z,93102.50
2023-03-06T00:08:52.454Z,93033.09
2023-03-06T00:09:49.038Z,93102.19
2023-03-06T00:10:46.048Z,93108.22
2023-03-06T00:11:42.621Z,93071.94
2023-03-06T00:12:39.287Z,93103.22
2023-03-06T00:13:35.876Z,93108.47
2023-03-06T00:14:32.419Z,93115.38
2023-03-06T00:15:29.448Z,93104.25
2023-03-06T00:16:26.095Z,93102.41
2023-03-06T00:17:22.826Z,93098.31
2023-03-06T00:18:19.401Z,93102.31
2023-03-06T00:19:16.016Z,93095.03
2023-03-06T00:20:13.419Z,93105.59
2023-03-06T00:21:10.113Z,93102.41
2023-03-06T00:22:06.709Z,93097.09
2023-03-06T00:23:03.619Z,93075.78
2023-03-06T00:24:00.227Z,93057.06
2023-03-06T00:24:57.012Z,93040.97
2023-03-06T00:25:53.688Z,93070.25
2023-03-06T00:26:50.965Z,93103.19
2023-03-06T00:27:48.254Z,93104.75
2023-03-06T00:28:44.960Z,93100.59
2023-03-06T00:29:41.578Z,93103.97
2023-03-06T00:30:38.235Z,93085.84
2023-03-06T00:31:36.005Z,93100.19
2023-03-06T00:32:32.665Z,93105.13
2023-03-06T00:33:29.504Z,93100.38
2023-03-06T00:34:26.119Z,93104.47
2023-03-06T00:35:22.890Z,93105.13
2023-03-06T00:36:19.556Z,93103.75
2023-03-06T00:37:16.333Z,93105.19
2023-03-06T00:38:13.517Z,93105.19
2023-03-06T00:39:10.138Z,93094.25
2023-03-06T00:40:12.897Z,93088.56
2023-03-06T00:41:13.265Z,93103.31
2023-03-06T00:42:10.017Z,93101.25
2023-03-06T00:43:06.619Z,93105.59
2023-03-06T00:44:03.333Z,93104.41
2023-03-06T00:44:59.893Z,93110.97
2023-03-06T00:45:56.512Z,93107.00
2023-03-06T00:46:53.195Z,93104.44
2023-03-06T00:47:49.859Z,93099.31
2023-03-06T00:48:46.578Z,93119.63
2023-03-06T00:49:44.870Z,93100.59
2023-03-06T00:50:41.449Z,93100.38
2023-03-06T00:51:38.107Z,93096.63
2023-03-06T00:52:35.044Z,93099.28
2023-03-06T00:53:31.738Z,93106.50
2023-03-06T00:54:28.295Z,93102.13
2023-03-06T00:55:24.925Z,93072.94
2023-03-06T00:56:21.598Z,93104.16
2023-03-06T00:57:18.208Z,93100.06
2023-03-06T00:58:14.837Z,93104.03
2023-03-06T00:59:11.739Z,93111.44
2023-03-06T01:00:10.575Z,93104.28
2023-03-06T01:01:07.352Z,93071.97
2023-03-06T01:02:04.740Z,93101.50
2023-03-06T01:03:01.347Z,93100.47
2023-03-06T01:03:57.948Z,93082.09
2023-03-06T01:04:54.724Z,93102.03
2023-03-06T01:05:52.022Z,93101.41
2023-03-06T01:06:49.521Z,93083.06
2023-03-06T01:07:46.884Z,93095.88
2023-03-06T01:08:43.470Z,93092.25
2023-03-06T01:09:40.041Z,93094.41
2023-03-06T01:10:40.678Z,93100.13
2023-03-06T01:11:37.407Z,93094.53
2023-03-06T01:12:37.142Z,93096.19
2023-03-06T01:13:33.757Z,93093.88
2023-03-06T01:14:31.506Z,93099.72
2023-03-06T01:15:28.168Z,93100.13
2023-03-06T01:16:24.857Z,93089.44
2023-03-06T01:17:21.550Z,93084.66
2023-03-06T01:18:18.440Z,93088.16
2023-03-06T01:19:15.483Z,93052.66
2023-03-06T01:20:15.653Z,93094.09
2023-03-06T01:21:13.422Z,93092.59
2023-03-06T01:22:10.012Z,93089.22
2023-03-06T01:23:06.610Z,93050.88
2023-03-06T01:24:03.228Z,93096.78
2023-03-06T01:24:59.806Z,93099.31
2023-03-06T01:25:56.661Z,93097.06
2023-03-06T01:26:53.324Z,93094.84
2023-03-06T01:27:49.889Z,93100.75
2023-03-06T01:28:46.470Z,93091.22
2023-03-06T01:29:43.058Z,93094.84
2023-03-06T01:30:39.726Z,93060.56
2023-03-06T01:31:36.349Z,93098.53
2023-03-06T01:32:33.371Z,93093.09
2023-03-06T01:33:30.280Z,93099.56
2023-03-06T01:34:26.952Z,92977.78
2023-03-06T01:35:23.618Z,93092.53
2023-03-06T01:36:20.276Z,93103.47
2023-03-06T01:37:17.231Z,93093.44
2023-03-06T01:38:14.017Z,93070.59
2023-03-06T01:39:10.761Z,93096.25
2023-03-06T01:40:09.267Z,93058.00
2023-03-06T01:41:06.563Z,93099.34
2023-03-06T01:42:03.765Z,93095.94
2023-03-06T01:43:25.487Z,93088.81
2023-03-06T01:44:22.160Z,93091.41
2023-03-06T01:45:18.700Z,93093.50
2023-03-06T01:46:21.173Z,93089.69
2023-03-06T01:47:17.830Z,93090.03
2023-03-06T01:48:14.579Z,93095.25
2023-03-06T01:49:14.170Z,93061.25
2023-03-06T01:50:12.020Z,93052.16
2023-03-06T01:51:09.065Z,93077.00
2023-03-06T01:52:27.336Z,93096.25
2023-03-06T01:53:24.499Z,93091.31
2023-03-06T01:54:31.202Z,93096.75
2023-03-06T01:55:33.858Z,93095.09
2023-03-06T01:56:30.755Z,93092.22
2023-03-06T01:57:41.082Z,93096.44
2023-03-06T01:58:38.419Z,93078.25
2023-03-06T01:59:36.780Z,93093.53
2023-03-06T02:00:33.660Z,93041.69
2023-03-06T02:01:32.309Z,93089.41
2023-03-06T02:02:29.584Z,93087.91
2023-03-06T02:03:28.480Z,93087.31
2023-03-06T02:04:25.240Z,93093.63
2023-03-06T02:05:22.438Z,93088.22
2023-03-06T02:06:21.813Z,93079.47
2023-03-06T02:07:20.962Z,93035.25
2023-03-06T02:08:19.682Z,93084.91
2023-03-06T02:09:16.814Z,93051.41
2023-03-06T02:10:15.001Z,93088.00
2023-03-06T02:11:17.357Z,93099.38
2023-03-06T02:12:16.497Z,93092.59
2023-03-06T02:13:13.053Z,93067.59
2023-03-06T02:14:13.128Z,93093.47
2023-03-06T02:15:11.949Z,93056.06
2023-03-06T02:16:10.220Z,93090.06
2023-03-06T02:17:09.961Z,93084.94
2023-03-06T02:18:06.772Z,93094.84
2023-03-06T02:19:07.186Z,93093.19
2023-03-06T02:20:39.561Z,93083.09
2023-03-06T02:21:37.726Z,93063.03
2023-03-06T02:23:56.185Z,93089.41
2023-03-06T02:25:07.938Z,93031.59
2023-03-06T02:26:06.566Z,93088.78
2023-03-06T02:27:04.548Z,93084.38
2023-03-06T02:28:02.346Z,93078.19
2023-03-06T02:28:59.440Z,93061.31
2023-03-06T02:29:56.116Z,93012.91
2023-03-06T02:30:54.493Z,93087.00
2023-03-06T02:31:51.185Z,93095.25
2023-03-06T02:32:47.856Z,93091.34
2023-03-06T02:33:44.453Z,93072.16
2023-03-06T02:34:40.989Z,93084.66
2023-03-06T02:35:39.262Z,93099.72
2023-03-06T02:36:40.275Z,93090.97
2023-03-06T02:37:36.880Z,93092.91
2023-03-06T02:38:40.734Z,93097.09
2023-03-06T02:39:46.786Z,93088.72
2023-03-06T02:40:46.916Z,93086.09
2023-03-06T02:41:43.580Z,93089.91
2023-03-06T02:42:49.816Z,93100.09
2023-03-06T02:43:48.096Z,93090.38
2023-03-06T02:44:44.791Z,93033.66
2023-03-06T02:45:45.549Z,93096.69
2023-03-06T02:46:42.169Z,93096.22
2023-03-06T02:47:38.783Z,93073.13
2023-03-06T02:48:35.374Z,93087.69
2023-03-06T02:49:31.986Z,93092.91
2023-03-06T02:50:28.784Z,93097.59
2023-03-06T02:51:26.178Z,93093.53
2023-03-06T02:52:22.946Z,93053.94
2023-03-06T02:53:21.014Z,93092.25
2023-03-06T02:54:20.396Z,93104.91
2023-03-06T02:55:17.101Z,93101.56
2023-03-06T02:56:15.176Z,93096.69
2023-03-06T02:57:12.110Z,93100.50
2023-03-06T02:58:09.689Z,93094.47
2023-03-06T02:59:06.408Z,93053.16
2023-03-06T03:00:03.859Z,93101.63
2023-03-06T03:01:00.519Z,93102.00
2023-03-06T03:01:57.142Z,93069.25
2023-03-06T03:02:54.102Z,93104.97
2023-03-06T03:03:50.787Z,93095.72
2023-03-06T03:04:47.422Z,93098.34
2023-03-06T03:05:44.108Z,93103.38
2023-03-06T03:06:40.662Z,93098.16
2023-03-06T03:07:37.396Z,93078.38
2023-03-06T03:08:34.566Z,93093.88
2023-03-06T03:09:36.772Z,93103.00
2023-03-06T03:10:33.416Z,93058.56
2023-03-06T03:11:29.980Z,93099.44
2023-03-06T03:12:28.651Z,93106.41
2023-03-06T03:13:25.453Z,93088.34
2023-03-06T03:14:24.576Z,93109.97
2023-03-06T03:15:21.361Z,93104.81
2023-03-06T03:16:18.021Z,93106.00
2023-03-06T03:17:14.831Z,92996.06
2023-03-06T03:18:12.138Z,93090.69
2023-03-06T03:19:08.775Z,93106.41
2023-03-06T03:20:07.735Z,93096.38
2023-03-06T03:21:08.498Z,93109.66
2023-03-06T03:22:05.494Z,93111.81
2023-03-06T03:23:02.185Z,93096.59
2023-03-06T03:23:58.832Z,93104.91
2023-03-06T03:24:55.510Z,93117.84
2023-03-06T03:25:52.746Z,93109.22
2023-03-06T03:26:49.340Z,93103.00
2023-03-06T03:27:46.029Z,93103.47
2023-03-06T03:28:42.711Z,93109.41
2023-03-06T03:29:39.702Z,93092.25
2023-03-06T03:30:36.371Z,93117.97
2023-03-06T03:31:33.268Z,93102.34
2023-03-06T03:32:29.931Z,93104.38
2023-03-06T03:33:26.561Z,93102.34
2023-03-06T03:34:23.165Z,93103.41
2023-03-06T03:35:19.862Z,93108.81
2023-03-06T03:36:16.467Z,93098.53
2023-03-06T03:37:13.061Z,93064.41
2023-03-06T03:38:09.724Z,93112.63
2023-03-06T03:39:06.629Z,93098.75
2023-03-06T03:40:05.185Z,93099.50
2023-03-06T03:41:02.682Z,93102.84
2023-03-06T03:41:59.473Z,93102.13
2023-03-06T03:42:56.060Z,93103.31
2023-03-06T03:43:52.775Z,93112.81
2023-03-06T03:44:49.330Z,93109.31
2023-03-06T03:45:46.048Z,93111.53
2023-03-06T03:46:42.644Z,93106.50
2023-03-06T03:47:39.359Z,93115.34
2023-03-06T03:48:35.969Z,93104.38
2023-03-06T03:49:32.546Z,93115.94
2023-03-06T03:50:29.139Z,93102.44
2023-03-06T03:51:25.685Z,93109.31
2023-03-06T03:52:22.377Z,93110.19
2023-03-06T03:53:18.966Z,93110.09
2023-03-06T03:54:15.559Z,93103.00
2023-03-06T03:55:12.189Z,93112.44
2023-03-06T03:56:08.824Z,93100.50
2023-03-06T03:57:05.547Z,93112.44
2023-03-06T03:58:02.280Z,93055.88
2023-03-06T03:58:58.947Z,93081.19
2023-03-06T03:59:55.746Z,93106.03
2023-03-06T04:00:52.471Z,93109.81
2023-03-06T04:01:49.646Z,93099.31
2023-03-06T04:02:46.685Z,93074.31
2023-03-06T04:03:43.843Z,93115.22
2023-03-06T04:04:40.883Z,93107.88
2023-03-06T04:05:37.646Z,93120.69
2023-03-06T04:06:34.320Z,93110.66
2023-03-06T04:07:30.975Z,93109.31
2023-03-06T04:08:27.851Z,93107.66
2023-03-06T04:09:24.579Z,93104.91
2023-03-06T04:10:21.259Z,93113.09
2023-03-06T04:11:17.852Z,93115.50
2023-03-06T04:12:14.460Z,93088.19
2023-03-06T04:13:11.134Z,93111.25
2023-03-06T04:14:09.742Z,93112.38
2023-03-06T04:15:08.190Z,93115.78
2023-03-06T04:16:04.962Z,93135.22
2023-03-06T04:17:01.542Z,93114.22
2023-03-06T04:17:58.393Z,93099.78
2023-03-06T04:18:54.982Z,93115.22
2023-03-06T04:19:51.770Z,93110.72
2023-03-06T04:20:49.636Z,93114.63
2023-03-06T04:21:46.321Z,93115.22
2023-03-06T04:22:42.902Z,93115.97
2023-03-06T04:23:39.541Z,93110.94
2023-03-06T04:24:36.207Z,93119.94
2023-03-06T04:25:32.801Z,93116.84
2023-03-06T04:26:29.445Z,93124.22
2023-03-06T04:27:26.093Z,93129.16
2023-03-06T04:28:22.798Z,93111.59
2023-03-06T04:29:19.532Z,93119.53
2023-03-06T04:30:16.323Z,93122.16
2023-03-06T04:31:13.796Z,93120.69
2023-03-06T04:32:10.739Z,93122.25
2023-03-06T04:33:07.577Z,93132.19
2023-03-06T04:34:04.210Z,93134.19
2023-03-06T04:35:00.940Z,93089.41
2023-03-06T04:35:57.646Z,93124.00
2023-03-06T04:36:54.328Z,93123.69
2023-03-06T04:37:51.013Z,93124.47
2023-03-06T04:38:47.732Z,93120.91
2023-03-06T04:39:44.422Z,93127.38
2023-03-06T04:40:44.479Z,93051.47
2023-03-06T04:41:42.480Z,93131.16
2023-03-06T04:42:39.331Z,93130.22
2023-03-06T04:43:35.973Z,93124.38
2023-03-06T04:44:32.664Z,93129.59
2023-03-06T04:45:30.915Z,93131.47
2023-03-06T04:46:27.548Z,93131.47
2023-03-06T04:47:24.275Z,93130.09
2023-03-06T04:48:20.905Z,93135.34
2023-03-06T04:49:17.592Z,93130.28
2023-03-06T04:50:14.367Z,93133.50
2023-03-06T04:51:13.358Z,93083.53
2023-03-06T04:52:09.930Z,93133.00
2023-03-06T04:53:07.992Z,93135.72
2023-03-06T04:54:05.367Z,93131.44
2023-03-06T04:55:04.221Z,93133.38
2023-03-06T04:56:00.884Z,93126.59
2023-03-06T04:56:57.509Z,93090.53
2023-03-06T04:57:54.240Z,93116.22
2023-03-06T04:58:50.884Z,93138.16
2023-03-06T04:59:47.419Z,93134.59
2023-03-06T05:00:44.127Z,93133.44
2023-03-06T05:01:40.821Z,93101.03
2023-03-06T05:02:38.081Z,93134.72
2023-03-06T05:03:34.678Z,93090.09
2023-03-06T05:04:31.226Z,93134.34
2023-03-06T05:05:28.965Z,93117.91
2023-03-06T05:06:26.490Z,93141.41
2023-03-06T05:07:23.205Z,93129.31
2023-03-06T05:08:20.066Z,93066.91
2023-03-06T05:09:16.950Z,93106.75
2023-03-06T05:10:16.051Z,93135.53
2023-03-06T05:11:12.690Z,93134.59
2023-03-06T05:12:09.409Z,93131.19
2023-03-06T05:13:06.155Z,93138.78
2023-03-06T05:14:02.831Z,93097.84
2023-03-06T05:14:59.523Z,93107.16
2023-03-06T05:16:01.930Z,93134.47
2023-03-06T05:16:58.394Z,93114.75
2023-03-06T05:17:56.569Z,93139.16
2023-03-06T05:18:53.414Z,93138.38
2023-03-06T05:19:49.998Z,93133.41
2023-03-06T05:20:46.696Z,93110.72
2023-03-06T05:21:43.340Z,93142.59
2023-03-06T05:22:40.713Z,93135.50
2023-03-06T05:23:38.662Z,93134.44
2023-03-06T05:24:35.439Z,93139.97
2023-03-06T05:25:32.233Z,93110.56
2023-03-06T05:26:28.913Z,93133.25
2023-03-06T05:27:25.692Z,93113.47
2023-03-06T05:28:22.651Z,93138.91
2023-03-06T05:29:19.368Z,93135.50
2023-03-06T05:30:16.273Z,93134.13
2023-03-06T05:31:12.925Z,93137.84
2023-03-06T05:32:09.734Z,93140.75
2023-03-06T05:33:06.675Z,93128.16
2023-03-06T05:34:03.360Z,93138.13
2023-03-06T05:35:00.058Z,93143.66
2023-03-06T05:35:56.714Z,93145.59
2023-03-06T05:36:53.263Z,93102.63
2023-03-06T05:37:50.170Z,93141.88
2023-03-06T05:38:46.955Z,93100.00
2023-03-06T05:39:43.499Z,93131.50
2023-03-06T05:40:44.292Z,93087.00
2023-03-06T05:41:40.862Z,93140.09
2023-03-06T05:42:37.616Z,93144.28
2023-03-06T05:43:34.218Z,93143.13
2023-03-06T05:44:33.078Z,93149.94
2023-03-06T05:45:29.653Z,93138.06
2023-03-06T05:46:26.524Z,93145.94
2023-03-06T05:47:23.280Z,93144.28
2023-03-06T05:48:19.879Z,93141.81
2023-03-06T05:49:17.084Z,93146.38
2023-03-06T05:50:14.841Z,93147.00
2023-03-06T05:51:11.981Z,93145.50
2023-03-06T05:52:09.026Z,93147.41
2023-03-06T05:53:05.670Z,93112.56
2023-03-06T05:54:02.417Z,93142.84
2023-03-06T05:54:59.100Z,93147.06
2023-03-06T05:56:00.055Z,93149.69
2023-03-06T05:56:57.479Z,93132.66
2023-03-06T05:57:54.151Z,93138.09
2023-03-06T05:58:51.703Z,93144.91
2023-03-06T05:59:50.025Z,93152.41
2023-03-06T06:00:46.615Z,93147.44
2023-03-06T06:01:43.312Z,93137.97
2023-03-06T06:02:40.083Z,93153.50
2023-03-06T06:03:36.815Z,93116.34
2023-03-06T06:04:33.486Z,93147.19
2023-03-06T06:05:30.241Z,93154.00
2023-03-06T06:06:26.837Z,93149.81
2023-03-06T06:07:23.442Z,93153.41
2023-03-06T06:08:20.998Z,93151.75
2023-03-06T06:09:17.537Z,93112.13
2023-03-06T06:10:14.371Z,93153.81
2023-03-06T06:11:12.834Z,93145.31
2023-03-06T06:12:09.589Z,93156.13
2023-03-06T06:13:06.434Z,93161.06
2023-03-06T06:14:03.051Z,93155.03
2023-03-06T06:14:59.657Z,93129.31
2023-03-06T06:15:56.330Z,93153.16
2023-03-06T06:16:53.646Z,93100.63
2023-03-06T06:17:50.226Z,93164.97
2023-03-06T06:18:46.837Z,93144.69
2023-03-06T06:19:43.913Z,93163.75
2023-03-06T06:20:40.541Z,93167.47
2023-03-06T06:21:37.174Z,93168.66
2023-03-06T06:22:36.829Z,93176.59
2023-03-06T06:23:33.680Z,93170.53
2023-03-06T06:24:31.933Z,93077.56
2023-03-06T06:25:28.582Z,93172.09
2023-03-06T06:26:25.200Z,93164.19
2023-03-06T06:27:21.792Z,93171.00
2023-03-06T06:28:18.427Z,93174.41
2023-03-06T06:29:15.176Z,93171.63
2023-03-06T06:30:13.045Z,93172.41
2023-03-06T06:31:13.138Z,93134.72
2023-03-06T06:32:09.871Z,93177.06
2023-03-06T06:33:06.972Z,93169.16
2023-03-06T06:34:07.613Z,93160.66
2023-03-06T06:35:05.029Z,93160.94
2023-03-06T06:36:01.807Z,93177.38
2023-03-06T06:36:58.509Z,93174.13
2023-03-06T06:37:55.127Z,93171.34
2023-03-06T06:38:51.842Z,93171.19
2023-03-06T06:39:48.632Z,93120.69
2023-03-06T06:40:53.943Z,93145.63
2023-03-06T06:42:26.184Z,93171.03
2023-03-06T06:43:18.762Z,93176.78
2023-03-06T06:44:16.219Z,93167.16
2023-03-06T06:45:13.224Z,93165.94
2023-03-06T06:46:38.784Z,93167.16
2023-03-06T06:47:26.614Z,93175.22
2023-03-06T06:48:23.291Z,93145.94
2023-03-06T06:49:20.019Z,93176.91
2023-03-06T06:50:16.852Z,93169.16
2023-03-06T06:51:13.484Z,93180.16
2023-03-06T06:52:10.656Z,93185.09
2023-03-06T06:53:07.309Z,93183.69
2023-03-06T06:54:04.000Z,93184.00
2023-03-06T06:55:00.696Z,93146.41
2023-03-06T06:56:00.476Z,93185.69
2023-03-06T06:56:57.216Z,93184.69
2023-03-06T06:57:53.948Z,93151.44
2023-03-06T06:59:01.334Z,93151.28
2023-03-06T07:00:07.870Z,93173.56
2023-03-06T07:01:09.882Z,93130.22
2023-03-06T07:02:08.259Z,93185.06
2023-03-06T07:03:04.900Z,93187.50
2023-03-06T07:04:01.512Z,93193.25
2023-03-06T07:05:05.851Z,93191.59
2023-03-06T07:06:02.951Z,93176.47
2023-03-06T07:06:59.999Z,93189.78
2023-03-06T07:07:56.697Z,93192.66
2023-03-06T07:08:53.351Z,93193.09
2023-03-06T07:09:50.264Z,93069.03
2023-03-06T07:10:46.872Z,93173.13
2023-03-06T07:11:43.510Z,93111.84
2023-03-06T07:12:40.170Z,93191.94
2023-03-06T07:13:36.789Z,93169.84
2023-03-06T07:14:33.466Z,93190.16
2023-03-06T07:15:30.882Z,93187.06
2023-03-06T07:16:27.696Z,93206.97
2023-03-06T07:17:24.332Z,93201.84
2023-03-06T07:18:20.911Z,93203.03
2023-03-06T07:19:17.545Z,93204.06
2023-03-06T07:20:14.241Z,93198.66
2023-03-06T07:21:11.699Z,93198.22
2023-03-06T07:22:08.527Z,93204.47
2023-03-06T07:23:08.518Z,93199.06
2023-03-06T07:24:05.566Z,93201.19
2023-03-06T07:25:03.456Z,93190.72
2023-03-06T07:26:00.211Z,93198.28
2023-03-06T07:26:56.786Z,93208.59
2023-03-06T07:27:54.753Z,93207.19
2023-03-06T07:28:53.695Z,93208.72
2023-03-06T07:29:50.674Z,93208.41
2023-03-06T07:30:47.392Z,93209.00
2023-03-06T07:31:44.533Z,93181.13
2023-03-06T07:32:41.175Z,93206.34
2023-03-06T07:33:38.939Z,93211.56
2023-03-06T07:34:35.630Z,93171.91
2023-03-06T07:35:32.286Z,93207.09
2023-03-06T07:36:28.902Z,93205.50
2023-03-06T07:37:25.601Z,93213.28
2023-03-06T07:38:22.267Z,93209.88
2023-03-06T07:39:18.906Z,93213.59
2023-03-06T07:40:15.570Z,93215.91
2023-03-06T07:41:13.752Z,93213.00
2023-03-06T07:42:13.429Z,93213.16
2023-03-06T07:43:19.171Z,93211.97
2023-03-06T07:44:16.290Z,93213.63
2023-03-06T07:45:13.314Z,93216.28
2023-03-06T07:46:11.186Z,93213.44
2023-03-06T07:47:07.943Z,93209.41
2023-03-06T07:48:05.666Z,93208.97
2023-03-06T07:49:03.204Z,93198.50
2023-03-06T07:50:03.112Z,93205.31
2023-03-06T07:51:02.307Z,93207.41
2023-03-06T07:51:59.146Z,93213.44
2023-03-06T07:52:55.765Z,93219.47
2023-03-06T07:53:52.426Z,93219.63
2023-03-06T07:54:49.421Z,93198.00
2023-03-06T07:55:46.118Z,93174.22
2023-03-06T07:56:42.686Z,93212.88
2023-03-06T07:57:39.824Z,93218.94
2023-03-06T07:58:38.206Z,93223.88
2023-03-06T07:59:34.900Z,93214.78
2023-03-06T08:00:31.555Z,93213.81
2023-03-06T08:01:28.382Z,93214.91
2023-03-06T08:02:25.054Z,93219.69
2023-03-06T08:03:21.706Z,93220.25
2023-03-06T08:04:18.365Z,93210.47
2023-03-06T08:05:16.755Z,93220.63
2023-03-06T08:06:19.433Z,93222.13
2023-03-06T08:07:15.995Z,93216.09
2023-03-06T08:08:12.667Z,93224.06
2023-03-06T08:09:09.207Z,93209.78
2023-03-06T08:10:06.135Z,93211.69
2023-03-06T08:11:02.823Z,93214.59
2023-03-06T08:11:59.412Z,93219.66
2023-03-06T08:12:55.958Z,93211.63
2023-03-06T08:13:53.094Z,93196.38
2023-03-06T08:14:49.731Z,93195.91
2023-03-06T08:15:49.530Z,93183.31
2023-03-06T08:16:46.127Z,93222.31
2023-03-06T08:17:42.841Z,93209.72
2023-03-06T08:18:40.094Z,93221.78
2023-03-06T08:19:36.742Z,93210.59
2023-03-06T08:20:33.280Z,93218.28
2023-03-06T08:21:30.011Z,93176.31
2023-03-06T08:22:26.577Z,93198.03
2023-03-06T08:23:23.366Z,93221.44
2023-03-06T08:24:20.211Z,93221.78
2023-03-06T08:25:16.812Z,93207.41
2023-03-06T08:26:19.197Z,93227.53
2023-03-06T08:27:15.808Z,93215.72
2023-03-06T08:28:12.357Z,93213.78
2023-03-06T08:29:10.814Z,93221.97
2023-03-06T08:30:08.473Z,93218.06
2023-03-06T08:31:25.226Z,93217.03
2023-03-06T08:32:21.886Z,93227.44
2023-03-06T08:33:18.479Z,93218.88
2023-03-06T08:34:19.365Z,93220.09
2023-03-06T08:35:16.067Z,93220.38
2023-03-06T08:36:12.760Z,93221.31
2023-03-06T08:37:09.504Z,93217.00
2023-03-06T08:38:06.413Z,93221.22
2023-03-06T08:39:03.717Z,93220.63
2023-03-06T08:40:02.631Z,93219.50
2023-03-06T08:40:59.263Z,93226.91
2023-03-06T08:41:55.904Z,93221.94
2023-03-06T08:42:52.462Z,93224.78
2023-03-06T08:43:49.570Z,93216.50
2023-03-06T08:44:46.248Z,93217.25
2023-03-06T08:45:42.878Z,93197.31
2023-03-06T08:46:40.084Z,93200.28
2023-03-06T08:47:36.713Z,93216.94
2023-03-06T08:48:33.396Z,93215.78
2023-03-06T08:49:30.268Z,93220.16
2023-03-06T08:50:26.973Z,93205.47
2023-03-06T08:51:24.375Z,93221.47
2023-03-06T08:52:21.120Z,93225.66
2023-03-06T08:53:17.870Z,93218.00
2023-03-06T08:54:14.806Z,93217.94
2023-03-06T08:55:12.921Z,93223.00
2023-03-06T08:56:29.378Z,93214.28
2023-03-06T08:57:26.004Z,93216.13
2023-03-06T08:58:22.675Z,93219.84
2023-03-06T08:59:19.363Z,93211.94
2023-03-06T09:00:16.675Z,93214.06
2023-03-06T09:01:18.662Z,93181.06
2023-03-06T09:02:15.379Z,93217.50
2023-03-06T09:03:12.034Z,93207.66
2023-03-06T09:04:11.554Z,93211.47
2023-03-06T09:05:09.007Z,93208.56
2023-03-06T09:06:05.963Z,93177.06
2023-03-06T09:07:02.557Z,93206.78
2023-03-06T09:07:59.219Z,93205.44
2023-03-06T09:08:55.998Z,93215.28
2023-03-06T09:09:56.512Z,93213.22
2023-03-06T09:10:53.150Z,93209.03
2023-03-06T09:11:51.257Z,93184.56
2023-03-06T09:12:51.230Z,93202.50
2023-03-06T09:13:48.777Z,93210.84
2023-03-06T09:14:45.359Z,93108.75
2023-03-06T09:15:41.964Z,93205.31
2023-03-06T09:16:38.742Z,93192.97
2023-03-06T09:17:35.390Z,93205.06
2023-03-06T09:18:32.024Z,93200.31
2023-03-06T09:19:28.627Z,93205.63
2023-03-06T09:20:28.286Z,93172.38
2023-03-06T09:21:26.246Z,93150.25
2023-03-06T09:22:22.831Z,93206.47
2023-03-06T09:23:19.393Z,93204.13
2023-03-06T09:24:16.057Z,93202.34
2023-03-06T09:25:13.998Z,93204.53
2023-03-06T09:26:12.347Z,93211.91
2023-03-06T09:27:08.946Z,93203.44
2023-03-06T09:28:11.773Z,93200.63
2023-03-06T09:29:08.836Z,93209.63
2023-03-06T09:30:06.548Z,93152.63
2023-03-06T09:31:11.070Z,93202.66
2023-03-06T09:32:07.963Z,93200.19
2023-03-06T09:33:04.689Z,93204.63
2023-03-06T09:34:01.551Z,93213.31
2023-03-06T09:34:58.189Z,93189.13
2023-03-06T09:35:56.646Z,93185.81
2023-03-06T09:36:57.197Z,93198.31
2023-03-06T09:37:54.358Z,93193.88
2023-03-06T09:39:47.643Z,93189.22
2023-03-06T09:41:02.566Z,93196.38
2023-03-06T09:41:59.497Z,93191.94
2023-03-06T09:42:56.334Z,93192.88
2023-03-06T09:43:57.995Z,93194.00
2023-03-06T09:45:01.101Z,93184.78
2023-03-06T09:45:59.023Z,93105.63
2023-03-06T09:47:07.046Z,93189.56
2023-03-06T09:48:15.672Z,93194.75
2023-03-06T09:49:15.367Z,93195.56
2023-03-06T09:50:11.977Z,93196.91
2023-03-06T09:51:16.384Z,93165.88
2023-03-06T09:52:34.260Z,93198.97
2023-03-06T09:53:55.758Z,93195.97
2023-03-06T09:54:55.556Z,93199.06
2023-03-06T09:56:02.523Z,93196.66
2023-03-06T09:56:59.291Z,93188.41
2023-03-06T09:58:04.979Z,93192.97
2023-03-06T09:59:13.518Z,93145.84
2023-03-06T10:00:23.731Z,93156.66
2023-03-06T10:01:25.868Z,93182.44
2023-03-06T10:02:31.416Z,93183.59
2023-03-06T10:03:33.315Z,93144.66
2023-03-06T10:04:38.280Z,93127.41
2023-03-06T10:06:02.606Z,93181.56
2023-03-06T10:07:20.524Z,93187.69
2023-03-06T10:08:47.200Z,93176.34
2023-03-06T10:09:50.837Z,93181.69
2023-03-06T10:11:07.188Z,93178.38
2023-03-06T10:12:22.021Z,93174.38
2023-03-06T10:13:28.267Z,93147.84
2023-03-06T10:14:49.025Z,93180.22
2023-03-06T10:15:48.154Z,93160.72
2023-03-06T10:16:44.926Z,93176.38
2023-03-06T10:17:42.855Z,93177.22
2023-03-06T10:18:40.062Z,93183.50
2023-03-06T10:19:40.140Z,93176.28
2023-03-06T10:21:07.418Z,93174.41
2023-03-06T10:22:52.607Z,93184.97
2023-03-06T10:24:37.854Z,93152.53
2023-03-06T10:26:01.137Z,93176.03
2023-03-06T10:27:34.713Z,93172.19
2023-03-06T10:28:47.721Z,93150.47
2023-03-06T10:30:02.194Z,93185.22
2023-03-06T10:31:09.432Z,93149.13
2023-03-06T10:32:20.386Z,93166.47
2023-03-06T10:33:20.069Z,93170.28
2023-03-06T10:34:28.512Z,93161.47
2023-03-06T10:35:30.824Z,93145.53
2023-03-06T10:36:28.432Z,93160.28
2023-03-06T10:37:31.021Z,93152.81
2023-03-06T10:38:38.437Z,93159.94
2023-03-06T10:39:35.317Z,93159.22
2023-03-06T10:40:54.354Z,92997.09
2023-03-06T10:41:50.906Z,93150.91
2023-03-06T10:42:47.506Z,93151.84
2023-03-06T10:44:03.000Z,93159.41
2023-03-06T10:45:25.819Z,93151.06
2023-03-06T10:46:31.342Z,93145.34
2023-03-06T10:47:30.789Z,93157.53
2023-03-06T10:48:30.177Z,93157.50
2023-03-06T10:49:37.515Z,93118.41
2023-03-06T10:50:34.516Z,93141.13
2023-03-06T10:51:32.052Z,93144.50
2023-03-06T10:52:34.416Z,93135.88
2023-03-06T10:53:30.950Z,93146.97
2023-03-06T10:54:30.150Z,93148.28
2023-03-06T10:55:30.327Z,93149.81
2023-03-06T10:56:39.524Z,93154.16
2023-03-06T10:57:36.143Z,93144.00
2023-03-06T10:58:33.230Z,93144.50
2023-03-06T10:59:29.967Z,93138.47
2023-03-06T11:00:36.096Z,93136.41
2023-03-06T11:01:32.928Z,93138.34
2023-03-06T11:02:39.500Z,93141.78
2023-03-06T11:03:37.087Z,93136.25
2023-03-06T11:04:35.265Z,93094.09
2023-03-06T11:05:31.947Z,93096.66
2023-03-06T11:06:35.201Z,93122.91
2023-03-06T11:07:34.592Z,93091.84
2023-03-06T11:08:31.661Z,93101.72
2023-03-06T11:09:28.386Z,93121.44
2023-03-06T11:10:25.735Z,93089.28
2023-03-06T11:11:36.728Z,93118.63
2023-03-06T11:12:38.305Z,93117.09
2023-03-06T11:13:38.586Z,93104.88
2023-03-06T11:14:35.182Z,93107.53
2023-03-06T11:15:32.199Z,93115.41
2023-03-06T11:16:30.769Z,93111.22
2023-03-06T11:17:29.801Z,93111.88
2023-03-06T11:18:34.896Z,93059.69
2023-03-06T11:19:32.835Z,93106.66
2023-03-06T11:20:41.266Z,93109.84
2023-03-06T11:22:00.050Z,93106.13
2023-03-06T11:23:32.301Z,93104.41
2023-03-06T11:24:40.562Z,93096.44
2023-03-06T11:25:44.779Z,93098.28
2023-03-06T11:26:50.970Z,93092.75
2023-03-06T11:27:56.798Z,93103.88
2023-03-06T11:29:17.369Z,93097.56
2023-03-06T11:30:32.427Z,93090.97
2023-03-06T11:31:33.743Z,93090.41
2023-03-06T11:32:44.115Z,93068.06
2023-03-06T11:34:04.446Z,93089.34
2023-03-06T11:35:13.930Z,93089.47